Search for airport 
image banner adimage banner adimage banner ad
image banner ad

KICL - Schenck Field

Located in Clarinda, United States

ICAO - ICL, IATA - ICL

Data provided by Airmate  

General information

Coordinates: N40°43'20" W95°1'36"
Elevation is 996 feet MSL.
Magnetic variation is 04° East
View others Airports in Iowa

Operational data

Special qualification required
Current time UTC:
Current local time:
Weather
METAR: KICL 181755Z AUTO 09012KT 10SM CLR 31/20 A2977 RMK AO2
View NOTAMs / SUP AIP / TFR affecting this airport [VIEW]
Communications frequencies: [VIEW]

Runways:

RWY identifierQFULength (ft)Width (ft)SurfaceLDA (ft)
0224°500075CONC
20204°500075CONC
13141°2729280GRASS
31321°2729280GRASS

Airport contact information

Address: Clarinda United States

Satellite view of KICL